sensor_id;sensor_type;location;lat;lon;timestamp;P1;durP1;ratioP1;P2;durP2;ratioP2
30505;SDS011;17292;51.600;4.994;2022-12-19T00:01:04;2.42;;;2.30;;
30505;SDS011;17292;51.600;4.994;2022-12-19T00:03:30;2.80;;;2.60;;
30505;SDS011;17292;51.600;4.994;2022-12-19T00:05:59;2.92;;;2.72;;
30505;SDS011;17292;51.600;4.994;2022-12-19T00:08:26;2.63;;;2.42;;
30505;SDS011;17292;51.600;4.994;2022-12-19T00:10:56;2.25;;;2.15;;
30505;SDS011;17292;51.600;4.994;2022-12-19T00:13:22;3.03;;;2.75;;
30505;SDS011;17292;51.600;4.994;2022-12-19T00:15:49;2.60;;;2.40;;
30505;SDS011;17292;51.600;4.994;2022-12-19T00:18:15;2.63;;;2.42;;
30505;SDS011;17292;51.600;4.994;2022-12-19T00:20:41;2.88;;;2.67;;
30505;SDS011;17292;51.600;4.994;2022-12-19T00:23:07;2.75;;;2.55;;
30505;SDS011;17292;51.600;4.994;2022-12-19T00:25:34;2.47;;;2.28;;
30505;SDS011;17292;51.600;4.994;2022-12-19T00:28:03;2.60;;;2.40;;
30505;SDS011;17292;51.600;4.994;2022-12-19T00:30:29;2.40;;;2.20;;
30505;SDS011;17292;51.600;4.994;2022-12-19T00:32:55;2.50;;;2.30;;
30505;SDS011;17292;51.600;4.994;2022-12-19T00:35:22;2.80;;;2.60;;
30505;SDS011;17292;51.600;4.994;2022-12-19T00:37:49;3.42;;;2.58;;
30505;SDS011;17292;51.600;4.994;2022-12-19T00:40:15;2.83;;;2.63;;
30505;SDS011;17292;51.600;4.994;2022-12-19T00:42:41;2.47;;;2.30;;
30505;SDS011;17292;51.600;4.994;2022-12-19T00:45:07;2.45;;;2.25;;
30505;SDS011;17292;51.600;4.994;2022-12-19T00:47:34;2.55;;;2.35;;
30505;SDS011;17292;51.600;4.994;2022-12-19T00:50:01;2.65;;;2.42;;
30505;SDS011;17292;51.600;4.994;2022-12-19T00:52:27;2.90;;;2.70;;
30505;SDS011;17292;51.600;4.994;2022-12-19T00:54:53;2.55;;;2.38;;
30505;SDS011;17292;51.600;4.994;2022-12-19T00:57:19;3.10;;;2.90;;
30505;SDS011;17292;51.600;4.994;2022-12-19T00:59:45;2.47;;;2.30;;
30505;SDS011;17292;51.600;4.994;2022-12-19T01:02:12;2.63;;;2.42;;
30505;SDS011;17292;51.600;4.994;2022-12-19T01:04:38;3.20;;;2.55;;
30505;SDS011;17292;51.600;4.994;2022-12-19T01:07:04;2.55;;;2.35;;
30505;SDS011;17292;51.600;4.994;2022-12-19T01:09:33;2.45;;;2.25;;
30505;SDS011;17292;51.600;4.994;2022-12-19T01:12:00;2.80;;;2.60;;
30505;SDS011;17292;51.600;4.994;2022-12-19T01:14:45;2.55;;;2.35;;
30505;SDS011;17292;51.600;4.994;2022-12-19T01:17:12;2.10;;;1.95;;
30505;SDS011;17292;51.600;4.994;2022-12-19T01:19:38;2.53;;;2.33;;
30505;SDS011;17292;51.600;4.994;2022-12-19T01:22:04;2.35;;;2.15;;
30505;SDS011;17292;51.600;4.994;2022-12-19T01:24:31;2.60;;;2.38;;
30505;SDS011;17292;51.600;4.994;2022-12-19T01:26:57;2.53;;;2.33;;
30505;SDS011;17292;51.600;4.994;2022-12-19T01:29:23;2.55;;;2.28;;
30505;SDS011;17292;51.600;4.994;2022-12-19T01:31:49;2.78;;;2.58;;
30505;SDS011;17292;51.600;4.994;2022-12-19T01:34:16;2.92;;;2.72;;
30505;SDS011;17292;51.600;4.994;2022-12-19T01:36:42;2.50;;;2.30;;
30505;SDS011;17292;51.600;4.994;2022-12-19T01:39:08;2.88;;;2.67;;
30505;SDS011;17292;51.600;4.994;2022-12-19T01:41:34;2.70;;;2.50;;
30505;SDS011;17292;51.600;4.994;2022-12-19T01:44:05;2.85;;;2.65;;
30505;SDS011;17292;51.600;4.994;2022-12-19T01:49:00;2.25;;;2.15;;
30505;SDS011;17292;51.600;4.994;2022-12-19T01:51:30;2.70;;;2.50;;
30505;SDS011;17292;51.600;4.994;2022-12-19T01:53:59;2.50;;;2.30;;
30505;SDS011;17292;51.600;4.994;2022-12-19T01:56:30;2.70;;;2.50;;
30505;SDS011;17292;51.600;4.994;2022-12-19T01:58:58;2.80;;;2.60;;
30505;SDS011;17292;51.600;4.994;2022-12-19T02:01:26;2.83;;;2.60;;
30505;SDS011;17292;51.600;4.994;2022-12-19T02:03:52;2.28;;;2.17;;
30505;SDS011;17292;51.600;4.994;2022-12-19T02:06:19;2.35;;;2.25;;
30505;SDS011;17292;51.600;4.994;2022-12-19T02:08:46;2.33;;;2.20;;
30505;SDS011;17292;51.600;4.994;2022-12-19T02:11:13;2.67;;;2.47;;
30505;SDS011;17292;51.600;4.994;2022-12-19T02:13:39;2.67;;;2.30;;
30505;SDS011;17292;51.600;4.994;2022-12-19T02:26:37;2.75;;;2.55;;
30505;SDS011;17292;51.600;4.994;2022-12-19T02:29:13;2.78;;;2.58;;
30505;SDS011;17292;51.600;4.994;2022-12-19T02:31:49;2.55;;;2.35;;
30505;SDS011;17292;51.600;4.994;2022-12-19T02:34:28;2.67;;;2.47;;
30505;SDS011;17292;51.600;4.994;2022-12-19T02:37:02;2.33;;;2.20;;
30505;SDS011;17292;51.600;4.994;2022-12-19T02:41:59;2.80;;;2.60;;
30505;SDS011;17292;51.600;4.994;2022-12-19T02:44:28;2.22;;;2.13;;
30505;SDS011;17292;51.600;4.994;2022-12-19T02:46:56;2.53;;;2.38;;
30505;SDS011;17292;51.600;4.994;2022-12-19T02:49:23;2.70;;;2.50;;
30505;SDS011;17292;51.600;4.994;2022-12-19T02:51:49;2.58;;;2.38;;
30505;SDS011;17292;51.600;4.994;2022-12-19T02:54:15;2.63;;;2.45;;
30505;SDS011;17292;51.600;4.994;2022-12-19T02:56:44;2.80;;;2.60;;
30505;SDS011;17292;51.600;4.994;2022-12-19T03:01:42;2.35;;;2.17;;
30505;SDS011;17292;51.600;4.994;2022-12-19T03:04:28;2.50;;;2.40;;
30505;SDS011;17292;51.600;4.994;2022-12-19T03:07:06;2.55;;;2.35;;
30505;SDS011;17292;51.600;4.994;2022-12-19T03:10:21;2.33;;;2.20;;
30505;SDS011;17292;51.600;4.994;2022-12-19T03:12:30;2.47;;;2.28;;
30505;SDS011;17292;51.600;4.994;2022-12-19T03:14:57;2.75;;;2.33;;
30505;SDS011;17292;51.600;4.994;2022-12-19T03:17:24;2.28;;;2.17;;
30505;SDS011;17292;51.600;4.994;2022-12-19T03:19:51;2.45;;;2.35;;
30505;SDS011;17292;51.600;4.994;2022-12-19T03:22:17;2.30;;;2.20;;
30505;SDS011;17292;51.600;4.994;2022-12-19T03:24:43;3.53;;;2.20;;
30505;SDS011;17292;51.600;4.994;2022-12-19T03:27:28;2.20;;;2.10;;
30505;SDS011;17292;51.600;4.994;2022-12-19T03:30:05;2.33;;;2.17;;
30505;SDS011;17292;51.600;4.994;2022-12-19T03:32:33;2.20;;;2.10;;
30505;SDS011;17292;51.600;4.994;2022-12-19T03:35:05;2.42;;;2.22;;
30505;SDS011;17292;51.600;4.994;2022-12-19T03:37:32;2.70;;;2.50;;
30505;SDS011;17292;51.600;4.994;2022-12-19T03:40:04;2.13;;;2.03;;
30505;SDS011;17292;51.600;4.994;2022-12-19T03:42:32;2.78;;;2.58;;
30505;SDS011;17292;51.600;4.994;2022-12-19T03:45:23;2.70;;;2.50;;
30505;SDS011;17292;51.600;4.994;2022-12-19T03:47:54;2.30;;;2.20;;
30505;SDS011;17292;51.600;4.994;2022-12-19T03:50:22;2.63;;;2.42;;
30505;SDS011;17292;51.600;4.994;2022-12-19T03:52:55;2.67;;;2.47;;
30505;SDS011;17292;51.600;4.994;2022-12-19T03:55:29;2.58;;;2.40;;
30505;SDS011;17292;51.600;4.994;2022-12-19T03:57:58;2.17;;;2.08;;
30505;SDS011;17292;51.600;4.994;2022-12-19T04:00:25;2.40;;;2.20;;
30505;SDS011;17292;51.600;4.994;2022-12-19T04:02:53;2.30;;;2.20;;
30505;SDS011;17292;51.600;4.994;2022-12-19T04:05:20;2.85;;;2.65;;
30505;SDS011;17292;51.600;4.994;2022-12-19T04:07:48;2.03;;;1.92;;
30505;SDS011;17292;51.600;4.994;2022-12-19T04:10:16;2.30;;;2.20;;
30505;SDS011;17292;51.600;4.994;2022-12-19T04:12:45;2.60;;;2.40;;
30505;SDS011;17292;51.600;4.994;2022-12-19T04:15:12;2.70;;;2.50;;
30505;SDS011;17292;51.600;4.994;2022-12-19T04:17:43;2.30;;;2.10;;
30505;SDS011;17292;51.600;4.994;2022-12-19T04:20:13;2.50;;;2.30;;
30505;SDS011;17292;51.600;4.994;2022-12-19T04:22:50;2.10;;;2.00;;
30505;SDS011;17292;51.600;4.994;2022-12-19T04:25:20;2.40;;;2.30;;
30505;SDS011;17292;51.600;4.994;2022-12-19T04:27:48;2.80;;;2.60;;
30505;SDS011;17292;51.600;4.994;2022-12-19T04:30:16;2.30;;;2.10;;
30505;SDS011;17292;51.600;4.994;2022-12-19T04:32:43;2.45;;;2.30;;
30505;SDS011;17292;51.600;4.994;2022-12-19T04:35:10;2.60;;;2.40;;
30505;SDS011;17292;51.600;4.994;2022-12-19T04:37:36;2.30;;;2.10;;
30505;SDS011;17292;51.600;4.994;2022-12-19T04:40:03;2.90;;;2.70;;
30505;SDS011;17292;51.600;4.994;2022-12-19T04:42:30;2.60;;;2.40;;
30505;SDS011;17292;51.600;4.994;2022-12-19T04:44:56;2.55;;;2.35;;
30505;SDS011;17292;51.600;4.994;2022-12-19T04:47:22;2.35;;;2.15;;
30505;SDS011;17292;51.600;4.994;2022-12-19T04:49:48;2.50;;;2.30;;
30505;SDS011;17292;51.600;4.994;2022-12-19T04:52:15;2.25;;;2.15;;
30505;SDS011;17292;51.600;4.994;2022-12-19T04:54:41;2.53;;;2.40;;
30505;SDS011;17292;51.600;4.994;2022-12-19T04:57:07;2.20;;;2.10;;
30505;SDS011;17292;51.600;4.994;2022-12-19T04:59:33;2.50;;;2.30;;
30505;SDS011;17292;51.600;4.994;2022-12-19T05:02:00;2.20;;;2.10;;
30505;SDS011;17292;51.600;4.994;2022-12-19T05:04:26;2.45;;;2.25;;
30505;SDS011;17292;51.600;4.994;2022-12-19T05:06:52;2.20;;;2.10;;
30505;SDS011;17292;51.600;4.994;2022-12-19T05:09:19;2.80;;;2.60;;
30505;SDS011;17292;51.600;4.994;2022-12-19T05:11:45;2.60;;;2.40;;
30505;SDS011;17292;51.600;4.994;2022-12-19T05:14:11;2.85;;;2.53;;
30505;SDS011;17292;51.600;4.994;2022-12-19T05:16:39;2.17;;;2.08;;
30505;SDS011;17292;51.600;4.994;2022-12-19T05:19:06;2.50;;;2.30;;
30505;SDS011;17292;51.600;4.994;2022-12-19T05:21:32;2.30;;;2.20;;
30505;SDS011;17292;51.600;4.994;2022-12-19T05:23:58;2.40;;;2.30;;
30505;SDS011;17292;51.600;4.994;2022-12-19T05:26:24;2.13;;;2.03;;
30505;SDS011;17292;51.600;4.994;2022-12-19T05:28:50;1.98;;;1.88;;
30505;SDS011;17292;51.600;4.994;2022-12-19T05:31:18;1.92;;;1.83;;
30505;SDS011;17292;51.600;4.994;2022-12-19T05:33:46;2.30;;;2.10;;
30505;SDS011;17292;51.600;4.994;2022-12-19T05:36:12;2.33;;;2.13;;
30505;SDS011;17292;51.600;4.994;2022-12-19T05:38:39;2.20;;;2.00;;
30505;SDS011;17292;51.600;4.994;2022-12-19T05:41:09;2.13;;;1.98;;
30505;SDS011;17292;51.600;4.994;2022-12-19T05:43:35;2.20;;;2.05;;
30505;SDS011;17292;51.600;4.994;2022-12-19T05:46:05;2.20;;;2.10;;
30505;SDS011;17292;51.600;4.994;2022-12-19T05:48:31;2.10;;;2.00;;
30505;SDS011;17292;51.600;4.994;2022-12-19T05:50:58;2.17;;;2.08;;
30505;SDS011;17292;51.600;4.994;2022-12-19T05:53:24;2.38;;;2.17;;
30505;SDS011;17292;51.600;4.994;2022-12-19T05:56:01;2.00;;;1.90;;
30505;SDS011;17292;51.600;4.994;2022-12-19T05:58:27;2.55;;;2.35;;
30505;SDS011;17292;51.600;4.994;2022-12-19T06:00:53;2.30;;;2.20;;
30505;SDS011;17292;51.600;4.994;2022-12-19T06:03:20;2.08;;;1.98;;
30505;SDS011;17292;51.600;4.994;2022-12-19T06:05:46;2.45;;;2.25;;
30505;SDS011;17292;51.600;4.994;2022-12-19T06:08:12;2.20;;;2.00;;
30505;SDS011;17292;51.600;4.994;2022-12-19T06:10:38;2.15;;;1.95;;
30505;SDS011;17292;51.600;4.994;2022-12-19T06:13:04;3.88;;;2.30;;
30505;SDS011;17292;51.600;4.994;2022-12-19T06:15:31;2.47;;;2.28;;
30505;SDS011;17292;51.600;4.994;2022-12-19T06:17:57;2.75;;;2.55;;
30505;SDS011;17292;51.600;4.994;2022-12-19T06:20:23;2.95;;;2.30;;
30505;SDS011;17292;51.600;4.994;2022-12-19T06:22:49;2.60;;;2.40;;
30505;SDS011;17292;51.600;4.994;2022-12-19T06:25:16;4.78;;;2.63;;
30505;SDS011;17292;51.600;4.994;2022-12-19T06:27:42;2.80;;;2.13;;
30505;SDS011;17292;51.600;4.994;2022-12-19T06:30:08;2.47;;;2.28;;
30505;SDS011;17292;51.600;4.994;2022-12-19T06:35:20;2.85;;;2.35;;
30505;SDS011;17292;51.600;4.994;2022-12-19T06:37:47;3.80;;;2.22;;
30505;SDS011;17292;51.600;4.994;2022-12-19T06:40:33;2.38;;;2.17;;
30505;SDS011;17292;51.600;4.994;2022-12-19T06:43:18;2.83;;;2.10;;
30505;SDS011;17292;51.600;4.994;2022-12-19T06:45:44;6.10;;;2.33;;
30505;SDS011;17292;51.600;4.994;2022-12-19T06:48:10;3.10;;;2.42;;
30505;SDS011;17292;51.600;4.994;2022-12-19T06:50:36;2.13;;;2.03;;
30505;SDS011;17292;51.600;4.994;2022-12-19T06:53:06;2.22;;;2.03;;
30505;SDS011;17292;51.600;4.994;2022-12-19T06:55:34;2.78;;;2.10;;
30505;SDS011;17292;51.600;4.994;2022-12-19T06:58:00;4.03;;;2.42;;
30505;SDS011;17292;51.600;4.994;2022-12-19T07:00:26;2.35;;;2.15;;
30505;SDS011;17292;51.600;4.994;2022-12-19T07:02:53;2.53;;;2.33;;
30505;SDS011;17292;51.600;4.994;2022-12-19T07:05:20;3.28;;;2.22;;
30505;SDS011;17292;51.600;4.994;2022-12-19T07:07:46;7.32;;;2.30;;
30505;SDS011;17292;51.600;4.994;2022-12-19T07:10:13;3.17;;;2.50;;
30505;SDS011;17292;51.600;4.994;2022-12-19T07:12:39;4.00;;;2.10;;
30505;SDS011;17292;51.600;4.994;2022-12-19T07:15:06;2.33;;;1.92;;
30505;SDS011;17292;51.600;4.994;2022-12-19T07:17:32;2.15;;;1.90;;
30505;SDS011;17292;51.600;4.994;2022-12-19T07:19:58;2.65;;;2.30;;
30505;SDS011;17292;51.600;4.994;2022-12-19T07:22:25;3.85;;;2.00;;
30505;SDS011;17292;51.600;4.994;2022-12-19T07:24:54;3.38;;;2.45;;
30505;SDS011;17292;51.600;4.994;2022-12-19T07:27:21;4.85;;;2.00;;
30505;SDS011;17292;51.600;4.994;2022-12-19T07:29:47;2.55;;;1.98;;
30505;SDS011;17292;51.600;4.994;2022-12-19T07:32:14;5.20;;;2.33;;
30505;SDS011;17292;51.600;4.994;2022-12-19T07:34:40;2.30;;;2.10;;
30505;SDS011;17292;51.600;4.994;2022-12-19T07:37:06;3.17;;;2.45;;
30505;SDS011;17292;51.600;4.994;2022-12-19T07:39:32;5.28;;;2.50;;
30505;SDS011;17292;51.600;4.994;2022-12-19T07:42:14;3.08;;;2.30;;
30505;SDS011;17292;51.600;4.994;2022-12-19T07:44:40;4.97;;;2.28;;
30505;SDS011;17292;51.600;4.994;2022-12-19T07:47:06;4.30;;;2.33;;
30505;SDS011;17292;51.600;4.994;2022-12-19T07:49:32;4.70;;;2.28;;
30505;SDS011;17292;51.600;4.994;2022-12-19T07:51:58;2.97;;;2.10;;
30505;SDS011;17292;51.600;4.994;2022-12-19T07:54:24;2.80;;;2.40;;
30505;SDS011;17292;51.600;4.994;2022-12-19T07:56:51;2.47;;;2.35;;
30505;SDS011;17292;51.600;4.994;2022-12-19T07:59:17;5.80;;;2.40;;
30505;SDS011;17292;51.600;4.994;2022-12-19T08:01:43;3.92;;;2.33;;
30505;SDS011;17292;51.600;4.994;2022-12-19T08:04:10;3.35;;;2.42;;
30505;SDS011;17292;51.600;4.994;2022-12-19T08:06:36;4.53;;;2.17;;
30505;SDS011;17292;51.600;4.994;2022-12-19T08:09:02;2.55;;;2.25;;
30505;SDS011;17292;51.600;4.994;2022-12-19T08:11:29;3.88;;;2.28;;
30505;SDS011;17292;51.600;4.994;2022-12-19T08:13:55;11.23;;;2.42;;
30505;SDS011;17292;51.600;4.994;2022-12-19T08:16:23;2.17;;;2.00;;
30505;SDS011;17292;51.600;4.994;2022-12-19T08:18:50;4.78;;;2.10;;
30505;SDS011;17292;51.600;4.994;2022-12-19T08:21:17;5.25;;;2.08;;
30505;SDS011;17292;51.600;4.994;2022-12-19T08:23:43;4.38;;;2.30;;
30505;SDS011;17292;51.600;4.994;2022-12-19T08:26:13;5.32;;;2.25;;
30505;SDS011;17292;51.600;4.994;2022-12-19T08:28:40;4.15;;;2.30;;
30505;SDS011;17292;51.600;4.994;2022-12-19T08:31:08;2.65;;;2.15;;
30505;SDS011;17292;51.600;4.994;2022-12-19T08:33:34;6.57;;;2.63;;
30505;SDS011;17292;51.600;4.994;2022-12-19T08:36:04;5.22;;;2.33;;
30505;SDS011;17292;51.600;4.994;2022-12-19T08:38:32;5.45;;;2.60;;
30505;SDS011;17292;51.600;4.994;2022-12-19T08:40:59;8.05;;;2.65;;
30505;SDS011;17292;51.600;4.994;2022-12-19T08:43:26;3.38;;;2.20;;
30505;SDS011;17292;51.600;4.994;2022-12-19T08:45:52;6.97;;;2.50;;
30505;SDS011;17292;51.600;4.994;2022-12-19T08:48:18;7.20;;;2.80;;
30505;SDS011;17292;51.600;4.994;2022-12-19T08:50:49;6.45;;;2.80;;
30505;SDS011;17292;51.600;4.994;2022-12-19T08:53:16;11.90;;;3.10;;
30505;SDS011;17292;51.600;4.994;2022-12-19T08:55:42;11.50;;;2.72;;
30505;SDS011;17292;51.600;4.994;2022-12-19T08:58:08;4.40;;;2.67;;
30505;SDS011;17292;51.600;4.994;2022-12-19T09:00:34;8.57;;;2.83;;
30505;SDS011;17292;51.600;4.994;2022-12-19T09:03:01;10.75;;;2.90;;
30505;SDS011;17292;51.600;4.994;2022-12-19T09:05:27;5.85;;;2.60;;
30505;SDS011;17292;51.600;4.994;2022-12-19T09:07:53;4.68;;;1.90;;
30505;SDS011;17292;51.600;4.994;2022-12-19T09:10:19;5.28;;;2.17;;
30505;SDS011;17292;51.600;4.994;2022-12-19T09:12:46;9.05;;;2.70;;
30505;SDS011;17292;51.600;4.994;2022-12-19T09:15:12;4.75;;;2.78;;
30505;SDS011;17292;51.600;4.994;2022-12-19T09:17:38;3.75;;;2.28;;
30505;SDS011;17292;51.600;4.994;2022-12-19T09:20:05;6.05;;;2.70;;
30505;SDS011;17292;51.600;4.994;2022-12-19T09:22:31;9.68;;;2.88;;
30505;SDS011;17292;51.600;4.994;2022-12-19T09:24:57;9.63;;;2.55;;
30505;SDS011;17292;51.600;4.994;2022-12-19T09:27:23;9.73;;;2.85;;
30505;SDS011;17292;51.600;4.994;2022-12-19T09:29:49;6.70;;;2.88;;
30505;SDS011;17292;51.600;4.994;2022-12-19T09:32:16;8.65;;;3.00;;
30505;SDS011;17292;51.600;4.994;2022-12-19T09:34:42;9.18;;;2.72;;
30505;SDS011;17292;51.600;4.994;2022-12-19T09:37:09;4.72;;;2.53;;
30505;SDS011;17292;51.600;4.994;2022-12-19T09:39:36;4.97;;;2.72;;
30505;SDS011;17292;51.600;4.994;2022-12-19T09:47:17;7.57;;;2.70;;
30505;SDS011;17292;51.600;4.994;2022-12-19T09:49:45;7.25;;;2.90;;
30505;SDS011;17292;51.600;4.994;2022-12-19T09:59:56;13.07;;;3.35;;
30505;SDS011;17292;51.600;4.994;2022-12-19T10:05:04;6.75;;;3.22;;
30505;SDS011;17292;51.600;4.994;2022-12-19T10:07:32;7.15;;;2.75;;
30505;SDS011;17292;51.600;4.994;2022-12-19T10:09:58;6.80;;;3.05;;
30505;SDS011;17292;51.600;4.994;2022-12-19T10:17:51;4.90;;;2.65;;
30505;SDS011;17292;51.600;4.994;2022-12-19T10:20:24;12.68;;;2.65;;
30505;SDS011;17292;51.600;4.994;2022-12-19T10:22:58;4.43;;;2.60;;
30505;SDS011;17292;51.600;4.994;2022-12-19T10:25:35;3.67;;;2.45;;
30505;SDS011;17292;51.600;4.994;2022-12-19T10:30:30;3.10;;;2.08;;
30505;SDS011;17292;51.600;4.994;2022-12-19T10:35:42;9.52;;;2.38;;
30505;SDS011;17292;51.600;4.994;2022-12-19T10:41:16;3.95;;;2.70;;
30505;SDS011;17292;51.600;4.994;2022-12-19T10:43:46;8.80;;;2.97;;
30505;SDS011;17292;51.600;4.994;2022-12-19T10:46:20;12.57;;;3.17;;
30505;SDS011;17292;51.600;4.994;2022-12-19T10:48:49;6.00;;;2.65;;
30505;SDS011;17292;51.600;4.994;2022-12-19T10:51:20;5.05;;;2.63;;
30505;SDS011;17292;51.600;4.994;2022-12-19T10:53:56;6.43;;;2.70;;
30505;SDS011;17292;51.600;4.994;2022-12-19T10:56:25;3.13;;;2.50;;
30505;SDS011;17292;51.600;4.994;2022-12-19T10:58:52;8.50;;;2.53;;
30505;SDS011;17292;51.600;4.994;2022-12-19T11:01:30;5.88;;;2.47;;
30505;SDS011;17292;51.600;4.994;2022-12-19T11:07:04;8.25;;;3.00;;
30505;SDS011;17292;51.600;4.994;2022-12-19T11:09:37;7.85;;;2.55;;
30505;SDS011;17292;51.600;4.994;2022-12-19T11:14:34;9.70;;;2.88;;
30505;SDS011;17292;51.600;4.994;2022-12-19T11:17:00;6.03;;;2.58;;
30505;SDS011;17292;51.600;4.994;2022-12-19T11:22:01;15.50;;;3.47;;
30505;SDS011;17292;51.600;4.994;2022-12-19T11:24:36;8.65;;;2.80;;
30505;SDS011;17292;51.600;4.994;2022-12-19T11:27:27;6.93;;;2.92;;
30505;SDS011;17292;51.600;4.994;2022-12-19T11:29:53;7.50;;;2.60;;
30505;SDS011;17292;51.600;4.994;2022-12-19T11:32:41;4.70;;;2.45;;
30505;SDS011;17292;51.600;4.994;2022-12-19T11:37:43;7.85;;;2.50;;
30505;SDS011;17292;51.600;4.994;2022-12-19T11:40:19;6.22;;;2.58;;
30505;SDS011;17292;51.600;4.994;2022-12-19T11:42:48;6.25;;;2.60;;
30505;SDS011;17292;51.600;4.994;2022-12-19T11:45:19;10.00;;;2.65;;
30505;SDS011;17292;51.600;4.994;2022-12-19T11:47:47;10.02;;;3.03;;
30505;SDS011;17292;51.600;4.994;2022-12-19T11:50:17;7.90;;;2.60;;
30505;SDS011;17292;51.600;4.994;2022-12-19T11:55:20;9.05;;;2.78;;
30505;SDS011;17292;51.600;4.994;2022-12-19T11:57:48;4.80;;;2.38;;
30505;SDS011;17292;51.600;4.994;2022-12-19T12:00:16;9.95;;;3.00;;
30505;SDS011;17292;51.600;4.994;2022-12-19T12:08:15;6.90;;;2.78;;
30505;SDS011;17292;51.600;4.994;2022-12-19T12:10:50;7.18;;;2.80;;
30505;SDS011;17292;51.600;4.994;2022-12-19T12:21:24;6.15;;;2.85;;
30505;SDS011;17292;51.600;4.994;2022-12-19T12:29:46;6.93;;;2.53;;
30505;SDS011;17292;51.600;4.994;2022-12-19T12:47:56;11.35;;;3.10;;
30505;SDS011;17292;51.600;4.994;2022-12-19T12:50:23;14.05;;;3.10;;
30505;SDS011;17292;51.600;4.994;2022-12-19T12:52:52;10.20;;;3.22;;
30505;SDS011;17292;51.600;4.994;2022-12-19T12:57:51;6.32;;;2.63;;
30505;SDS011;17292;51.600;4.994;2022-12-19T13:02:51;8.52;;;2.95;;
30505;SDS011;17292;51.600;4.994;2022-12-19T13:07:49;10.85;;;3.05;;
30505;SDS011;17292;51.600;4.994;2022-12-19T13:13:07;10.55;;;3.00;;
30505;SDS011;17292;51.600;4.994;2022-12-19T13:15:41;12.65;;;3.20;;
30505;SDS011;17292;51.600;4.994;2022-12-19T13:20:52;8.45;;;3.28;;
30505;SDS011;17292;51.600;4.994;2022-12-19T13:23:20;13.88;;;3.05;;
30505;SDS011;17292;51.600;4.994;2022-12-19T13:25:48;7.45;;;2.92;;
30505;SDS011;17292;51.600;4.994;2022-12-19T13:33:13;7.95;;;3.10;;
30505;SDS011;17292;51.600;4.994;2022-12-19T13:35:40;12.75;;;3.08;;
30505;SDS011;17292;51.600;4.994;2022-12-19T13:38:22;12.98;;;2.97;;
30505;SDS011;17292;51.600;4.994;2022-12-19T13:40:58;10.30;;;2.95;;
30505;SDS011;17292;51.600;4.994;2022-12-19T13:43:38;13.68;;;3.10;;
30505;SDS011;17292;51.600;4.994;2022-12-19T13:51:11;17.88;;;3.40;;
30505;SDS011;17292;51.600;4.994;2022-12-19T13:53:37;9.52;;;2.90;;
30505;SDS011;17292;51.600;4.994;2022-12-19T13:56:05;7.45;;;3.00;;
30505;SDS011;17292;51.600;4.994;2022-12-19T14:01:05;18.00;;;3.22;;
30505;SDS011;17292;51.600;4.994;2022-12-19T14:03:39;10.35;;;3.30;;
30505;SDS011;17292;51.600;4.994;2022-12-19T14:06:16;11.75;;;2.97;;
30505;SDS011;17292;51.600;4.994;2022-12-19T14:08:44;13.05;;;2.78;;
30505;SDS011;17292;51.600;4.994;2022-12-19T14:11:12;14.52;;;3.65;;
30505;SDS011;17292;51.600;4.994;2022-12-19T14:13:44;11.43;;;2.80;;
30505;SDS011;17292;51.600;4.994;2022-12-19T14:16:30;8.02;;;2.95;;
30505;SDS011;17292;51.600;4.994;2022-12-19T14:18:56;7.95;;;3.05;;
30505;SDS011;17292;51.600;4.994;2022-12-19T14:21:25;6.85;;;2.88;;
30505;SDS011;17292;51.600;4.994;2022-12-19T14:24:10;20.27;;;3.20;;
30505;SDS011;17292;51.600;4.994;2022-12-19T14:26:37;10.45;;;3.33;;
30505;SDS011;17292;51.600;4.994;2022-12-19T14:29:09;6.85;;;2.50;;
30505;SDS011;17292;51.600;4.994;2022-12-19T14:31:37;8.10;;;2.83;;
30505;SDS011;17292;51.600;4.994;2022-12-19T14:37:28;10.85;;;3.05;;
30505;SDS011;17292;51.600;4.994;2022-12-19T14:40:29;12.45;;;3.30;;
30505;SDS011;17292;51.600;4.994;2022-12-19T14:47:58;7.03;;;2.53;;
30505;SDS011;17292;51.600;4.994;2022-12-19T14:50:32;10.55;;;2.70;;
30505;SDS011;17292;51.600;4.994;2022-12-19T14:53:08;5.72;;;2.70;;
30505;SDS011;17292;51.600;4.994;2022-12-19T14:55:40;8.43;;;2.60;;
30505;SDS011;17292;51.600;4.994;2022-12-19T14:58:07;10.82;;;3.22;;
30505;SDS011;17292;51.600;4.994;2022-12-19T15:00:47;14.50;;;2.97;;
30505;SDS011;17292;51.600;4.994;2022-12-19T15:03:49;5.15;;;2.92;;
30505;SDS011;17292;51.600;4.994;2022-12-19T15:06:16;8.73;;;3.22;;
30505;SDS011;17292;51.600;4.994;2022-12-19T15:08:43;10.35;;;3.03;;
30505;SDS011;17292;51.600;4.994;2022-12-19T15:11:20;12.63;;;3.30;;
30505;SDS011;17292;51.600;4.994;2022-12-19T15:14:06;12.40;;;2.95;;
30505;SDS011;17292;51.600;4.994;2022-12-19T15:16:32;7.40;;;2.58;;
30505;SDS011;17292;51.600;4.994;2022-12-19T15:19:01;13.30;;;3.00;;
30505;SDS011;17292;51.600;4.994;2022-12-19T15:21:28;13.65;;;4.13;;
30505;SDS011;17292;51.600;4.994;2022-12-19T15:23:55;13.85;;;3.08;;
30505;SDS011;17292;51.600;4.994;2022-12-19T15:26:28;11.00;;;3.42;;
30505;SDS011;17292;51.600;4.994;2022-12-19T15:28:55;11.63;;;3.10;;
30505;SDS011;17292;51.600;4.994;2022-12-19T15:33:54;10.40;;;2.97;;
30505;SDS011;17292;51.600;4.994;2022-12-19T15:36:20;17.00;;;3.35;;
30505;SDS011;17292;51.600;4.994;2022-12-19T15:38:46;9.18;;;2.95;;
30505;SDS011;17292;51.600;4.994;2022-12-19T15:41:19;10.05;;;3.15;;
30505;SDS011;17292;51.600;4.994;2022-12-19T15:43:47;11.77;;;3.33;;
30505;SDS011;17292;51.600;4.994;2022-12-19T15:46:13;13.55;;;3.25;;
30505;SDS011;17292;51.600;4.994;2022-12-19T15:48:41;11.05;;;3.08;;
30505;SDS011;17292;51.600;4.994;2022-12-19T15:51:11;13.02;;;3.25;;
30505;SDS011;17292;51.600;4.994;2022-12-19T15:53:37;10.77;;;3.70;;
30505;SDS011;17292;51.600;4.994;2022-12-19T15:56:04;13.43;;;3.45;;
30505;SDS011;17292;51.600;4.994;2022-12-19T15:58:30;14.40;;;2.90;;
30505;SDS011;17292;51.600;4.994;2022-12-19T16:00:59;15.90;;;2.88;;
30505;SDS011;17292;51.600;4.994;2022-12-19T16:03:26;14.98;;;3.85;;
30505;SDS011;17292;51.600;4.994;2022-12-19T16:05:53;11.57;;;3.42;;
30505;SDS011;17292;51.600;4.994;2022-12-19T16:08:20;19.45;;;3.40;;
30505;SDS011;17292;51.600;4.994;2022-12-19T16:10:50;14.05;;;3.50;;
30505;SDS011;17292;51.600;4.994;2022-12-19T16:13:25;13.93;;;3.60;;
30505;SDS011;17292;51.600;4.994;2022-12-19T16:15:53;12.52;;;3.40;;
30505;SDS011;17292;51.600;4.994;2022-12-19T16:18:20;12.23;;;2.92;;
30505;SDS011;17292;51.600;4.994;2022-12-19T16:20:46;14.10;;;3.35;;
30505;SDS011;17292;51.600;4.994;2022-12-19T16:23:13;13.63;;;3.10;;
30505;SDS011;17292;51.600;4.994;2022-12-19T16:28:06;11.10;;;2.90;;
30505;SDS011;17292;51.600;4.994;2022-12-19T16:30:33;18.13;;;3.30;;
30505;SDS011;17292;51.600;4.994;2022-12-19T16:33:00;9.32;;;3.30;;
30505;SDS011;17292;51.600;4.994;2022-12-19T16:35:27;16.42;;;3.35;;
30505;SDS011;17292;51.600;4.994;2022-12-19T16:37:54;13.07;;;3.55;;
30505;SDS011;17292;51.600;4.994;2022-12-19T16:40:21;13.38;;;3.60;;
30505;SDS011;17292;51.600;4.994;2022-12-19T16:42:49;13.25;;;2.85;;
30505;SDS011;17292;51.600;4.994;2022-12-19T16:45:21;15.25;;;3.55;;
30505;SDS011;17292;51.600;4.994;2022-12-19T16:47:48;14.02;;;3.47;;
30505;SDS011;17292;51.600;4.994;2022-12-19T16:50:22;10.43;;;3.13;;
30505;SDS011;17292;51.600;4.994;2022-12-19T16:52:50;6.93;;;3.22;;
30505;SDS011;17292;51.600;4.994;2022-12-19T16:55:16;10.02;;;3.33;;
30505;SDS011;17292;51.600;4.994;2022-12-19T16:57:43;8.82;;;2.95;;
30505;SDS011;17292;51.600;4.994;2022-12-19T17:00:12;13.88;;;3.60;;
30505;SDS011;17292;51.600;4.994;2022-12-19T17:05:05;15.55;;;3.30;;
30505;SDS011;17292;51.600;4.994;2022-12-19T17:07:32;14.45;;;3.17;;
30505;SDS011;17292;51.600;4.994;2022-12-19T17:09:58;11.18;;;3.17;;
30505;SDS011;17292;51.600;4.994;2022-12-19T17:12:25;15.63;;;3.28;;
30505;SDS011;17292;51.600;4.994;2022-12-19T17:14:51;9.95;;;2.53;;